Decoded Metar for OIBB (BUSHEHR in IRAN) (IATA:BUZ) | Meteo·Mobile Aviation Weather
aviador You're here:

OIBB Decoded Metar

BUSHEHR in IRAN
Report Time2019-01-17 22:50:00
UTC Time2019-01-17 23:37:39
Flight Rules ifr IFR
Wind360° at 14 kt
W.Decomp.*RWY 31: 9.5 kt HW 10.2 kt RCW
Visibility4000 m
Phenomena:Widespread Dust
Clouds:N/A
Expected CloudBase > 3,200 ft AGL from Temp-Dew spread
CeilingNone
Temp13°C (ISA -2)
Dew Point05°C (59% RH)
AAT6.9°C
QNH1019 hPa
Density Alt-243 ft
Elevation62 ft
Report Wrong Elevation
Raw Report
OIBB 172250Z 36014KT 4000 DU NSC 13/05 Q1019 A3010=

Extra information for OIBB:More info

Metar Taf Metar & Taf Last 4 Metars F.Rules Stats Wind Profile Meteogram Temp Stats Airport Information Weather charts Add Link Nearby VenuesMetar ALERT Operation Metar Decoded Social comments